sensor_id;sensor_type;location;lat;lon;timestamp;P1;durP1;ratioP1;P2;durP2;ratioP2
4468;SDS011;2247;42.666;23.292;2023-01-29T00:04:01;10.23;;;6.53;;
4468;SDS011;2247;42.666;23.292;2023-01-29T00:09:27;9.20;;;6.53;;
4468;SDS011;2247;42.666;23.292;2023-01-29T00:19:57;10.70;;;6.50;;
4468;SDS011;2247;42.666;23.292;2023-01-29T00:32:56;8.83;;;6.27;;
4468;SDS011;2247;42.666;23.292;2023-01-29T00:48:30;11.13;;;6.57;;
4468;SDS011;2247;42.666;23.292;2023-01-29T00:51:06;9.90;;;5.90;;
4468;SDS011;2247;42.666;23.292;2023-01-29T00:56:13;10.57;;;6.53;;
4468;SDS011;2247;42.666;23.292;2023-01-29T01:01:29;11.13;;;6.83;;
4468;SDS011;2247;42.666;23.292;2023-01-29T01:46:44;10.13;;;6.80;;
4468;SDS011;2247;42.666;23.292;2023-01-29T01:49:42;10.67;;;6.50;;
4468;SDS011;2247;42.666;23.292;2023-01-29T01:57:29;9.97;;;7.10;;
4468;SDS011;2247;42.666;23.292;2023-01-29T02:00:10;10.50;;;6.40;;
4468;SDS011;2247;42.666;23.292;2023-01-29T02:02:56;9.63;;;6.87;;
4468;SDS011;2247;42.666;23.292;2023-01-29T02:08:17;8.40;;;6.33;;
4468;SDS011;2247;42.666;23.292;2023-01-29T02:11:08;10.17;;;6.70;;
4468;SDS011;2247;42.666;23.292;2023-01-29T02:13:40;9.77;;;6.67;;
4468;SDS011;2247;42.666;23.292;2023-01-29T02:16:15;8.53;;;6.30;;
4468;SDS011;2247;42.666;23.292;2023-01-29T02:18:53;11.03;;;7.23;;
4468;SDS011;2247;42.666;23.292;2023-01-29T02:24:19;11.90;;;7.20;;
4468;SDS011;2247;42.666;23.292;2023-01-29T02:29:58;9.83;;;6.93;;
4468;SDS011;2247;42.666;23.292;2023-01-29T02:32:49;9.00;;;6.50;;
4468;SDS011;2247;42.666;23.292;2023-01-29T02:35:33;10.37;;;6.43;;
4468;SDS011;2247;42.666;23.292;2023-01-29T02:40:51;8.67;;;6.83;;
4468;SDS011;2247;42.666;23.292;2023-01-29T02:43:27;11.27;;;7.10;;
4468;SDS011;2247;42.666;23.292;2023-01-29T02:46:13;9.83;;;6.70;;
4468;SDS011;2247;42.666;23.292;2023-01-29T02:48:51;8.80;;;6.17;;
4468;SDS011;2247;42.666;23.292;2023-01-29T03:07:03;8.17;;;5.97;;
4468;SDS011;2247;42.666;23.292;2023-01-29T03:10:02;8.10;;;5.97;;
4468;SDS011;2247;42.666;23.292;2023-01-29T03:12:44;6.90;;;5.63;;
4468;SDS011;2247;42.666;23.292;2023-01-29T03:15:32;7.80;;;6.00;;
4468;SDS011;2247;42.666;23.292;2023-01-29T03:18:12;7.37;;;5.47;;
4468;SDS011;2247;42.666;23.292;2023-01-29T03:20:49;6.60;;;5.23;;
4468;SDS011;2247;42.666;23.292;2023-01-29T03:34:11;5.70;;;4.83;;
4468;SDS011;2247;42.666;23.292;2023-01-29T03:36:49;6.17;;;4.83;;
4468;SDS011;2247;42.666;23.292;2023-01-29T03:42:15;6.20;;;4.60;;
4468;SDS011;2247;42.666;23.292;2023-01-29T03:44:52;6.30;;;4.67;;
4468;SDS011;2247;42.666;23.292;2023-01-29T03:47:31;5.90;;;4.43;;
4468;SDS011;2247;42.666;23.292;2023-01-29T03:50:11;5.87;;;4.50;;
4468;SDS011;2247;42.666;23.292;2023-01-29T03:52:59;5.03;;;3.80;;
4468;SDS011;2247;42.666;23.292;2023-01-29T03:55:39;5.47;;;4.60;;
4468;SDS011;2247;42.666;23.292;2023-01-29T03:58:16;5.57;;;4.70;;
4468;SDS011;2247;42.666;23.292;2023-01-29T04:00:55;4.33;;;3.80;;
4468;SDS011;2247;42.666;23.292;2023-01-29T04:03:35;5.43;;;4.53;;
4468;SDS011;2247;42.666;23.292;2023-01-29T04:21:43;5.23;;;4.37;;
4468;SDS011;2247;42.666;23.292;2023-01-29T04:24:19;4.90;;;3.90;;
4468;SDS011;2247;42.666;23.292;2023-01-29T04:29:34;4.23;;;3.80;;
4468;SDS011;2247;42.666;23.292;2023-01-29T05:59:03;5.73;;;4.40;;
4468;SDS011;2247;42.666;23.292;2023-01-29T06:01:42;5.97;;;4.90;;
4468;SDS011;2247;42.666;23.292;2023-01-29T06:12:10;5.17;;;4.60;;
4468;SDS011;2247;42.666;23.292;2023-01-29T07:15:00;9.53;;;6.00;;
4468;SDS011;2247;42.666;23.292;2023-01-29T07:17:34;6.90;;;5.73;;
4468;SDS011;2247;42.666;23.292;2023-01-29T07:30:28;8.97;;;6.33;;
4468;SDS011;2247;42.666;23.292;2023-01-29T07:38:20;8.77;;;6.50;;
4468;SDS011;2247;42.666;23.292;2023-01-29T07:59:00;10.80;;;6.60;;
4468;SDS011;2247;42.666;23.292;2023-01-29T08:14:35;7.30;;;5.83;;
4468;SDS011;2247;42.666;23.292;2023-01-29T08:17:20;11.10;;;7.33;;
4468;SDS011;2247;42.666;23.292;2023-01-29T08:20:16;10.80;;;7.07;;
4468;SDS011;2247;42.666;23.292;2023-01-29T08:22:44;10.70;;;6.90;;
4468;SDS011;2247;42.666;23.292;2023-01-29T08:25:12;10.67;;;6.87;;
4468;SDS011;2247;42.666;23.292;2023-01-29T08:27:40;8.10;;;6.80;;
4468;SDS011;2247;42.666;23.292;2023-01-29T08:30:09;13.20;;;7.03;;
4468;SDS011;2247;42.666;23.292;2023-01-29T08:32:37;10.60;;;6.80;;
4468;SDS011;2247;42.666;23.292;2023-01-29T08:35:06;10.87;;;7.80;;
4468;SDS011;2247;42.666;23.292;2023-01-29T08:37:33;10.57;;;7.07;;
4468;SDS011;2247;42.666;23.292;2023-01-29T08:40:01;10.80;;;6.70;;
4468;SDS011;2247;42.666;23.292;2023-01-29T08:42:30;9.50;;;6.97;;
4468;SDS011;2247;42.666;23.292;2023-01-29T08:44:59;13.10;;;7.83;;
4468;SDS011;2247;42.666;23.292;2023-01-29T08:47:30;10.70;;;7.37;;
4468;SDS011;2247;42.666;23.292;2023-01-29T08:49:59;8.83;;;6.80;;
4468;SDS011;2247;42.666;23.292;2023-01-29T08:52:26;10.07;;;6.67;;
4468;SDS011;2247;42.666;23.292;2023-01-29T08:54:54;12.97;;;7.33;;
4468;SDS011;2247;42.666;23.292;2023-01-29T08:57:21;12.17;;;7.23;;
4468;SDS011;2247;42.666;23.292;2023-01-29T08:59:48;16.07;;;8.23;;
4468;SDS011;2247;42.666;23.292;2023-01-29T09:02:15;9.00;;;7.23;;
4468;SDS011;2247;42.666;23.292;2023-01-29T09:04:49;10.20;;;7.70;;
4468;SDS011;2247;42.666;23.292;2023-01-29T09:07:17;11.87;;;7.30;;
4468;SDS011;2247;42.666;23.292;2023-01-29T09:09:47;14.53;;;8.73;;
4468;SDS011;2247;42.666;23.292;2023-01-29T09:12:14;12.83;;;7.63;;
4468;SDS011;2247;42.666;23.292;2023-01-29T09:14:46;9.70;;;7.13;;
4468;SDS011;2247;42.666;23.292;2023-01-29T09:17:14;12.40;;;8.30;;
4468;SDS011;2247;42.666;23.292;2023-01-29T09:19:44;11.83;;;7.50;;
4468;SDS011;2247;42.666;23.292;2023-01-29T09:22:19;12.00;;;8.03;;
4468;SDS011;2247;42.666;23.292;2023-01-29T09:24:51;12.23;;;8.00;;
4468;SDS011;2247;42.666;23.292;2023-01-29T09:27:21;11.13;;;7.83;;
4468;SDS011;2247;42.666;23.292;2023-01-29T09:29:51;10.77;;;7.40;;
4468;SDS011;2247;42.666;23.292;2023-01-29T09:32:23;11.37;;;7.50;;
4468;SDS011;2247;42.666;23.292;2023-01-29T09:34:54;11.93;;;7.47;;
4468;SDS011;2247;42.666;23.292;2023-01-29T09:37:28;14.57;;;8.23;;
4468;SDS011;2247;42.666;23.292;2023-01-29T09:39:55;10.20;;;7.50;;
4468;SDS011;2247;42.666;23.292;2023-01-29T09:42:25;12.53;;;7.73;;
4468;SDS011;2247;42.666;23.292;2023-01-29T09:45:07;12.17;;;8.10;;
4468;SDS011;2247;42.666;23.292;2023-01-29T09:47:41;11.77;;;8.20;;
4468;SDS011;2247;42.666;23.292;2023-01-29T09:50:12;11.43;;;7.77;;
4468;SDS011;2247;42.666;23.292;2023-01-29T09:52:46;12.63;;;8.60;;
4468;SDS011;2247;42.666;23.292;2023-01-29T09:55:27;11.57;;;8.03;;
4468;SDS011;2247;42.666;23.292;2023-01-29T09:58:04;12.70;;;8.03;;
4468;SDS011;2247;42.666;23.292;2023-01-29T10:00:39;15.27;;;8.10;;
4468;SDS011;2247;42.666;23.292;2023-01-29T10:05:59;13.53;;;8.50;;
4468;SDS011;2247;42.666;23.292;2023-01-29T10:08:55;10.87;;;7.70;;
4468;SDS011;2247;42.666;23.292;2023-01-29T10:11:44;12.70;;;7.77;;
4468;SDS011;2247;42.666;23.292;2023-01-29T10:14:21;13.60;;;8.40;;
4468;SDS011;2247;42.666;23.292;2023-01-29T10:17:05;12.93;;;8.60;;
4468;SDS011;2247;42.666;23.292;2023-01-29T10:19:55;23.13;;;9.10;;
4468;SDS011;2247;42.666;23.292;2023-01-29T10:22:42;12.90;;;8.73;;
4468;SDS011;2247;42.666;23.292;2023-01-29T10:25:20;14.73;;;9.67;;
4468;SDS011;2247;42.666;23.292;2023-01-29T10:27:50;13.50;;;8.63;;
4468;SDS011;2247;42.666;23.292;2023-01-29T10:30:25;12.93;;;8.37;;
4468;SDS011;2247;42.666;23.292;2023-01-29T10:33:01;13.03;;;8.43;;
4468;SDS011;2247;42.666;23.292;2023-01-29T10:35:30;15.13;;;9.40;;
4468;SDS011;2247;42.666;23.292;2023-01-29T10:38:01;13.97;;;9.30;;
4468;SDS011;2247;42.666;23.292;2023-01-29T10:40:44;14.13;;;8.70;;
4468;SDS011;2247;42.666;23.292;2023-01-29T10:43:21;14.60;;;9.13;;
4468;SDS011;2247;42.666;23.292;2023-01-29T10:46:03;15.80;;;9.73;;
4468;SDS011;2247;42.666;23.292;2023-01-29T10:48:58;13.90;;;9.10;;
4468;SDS011;2247;42.666;23.292;2023-01-29T10:51:41;14.53;;;9.20;;
4468;SDS011;2247;42.666;23.292;2023-01-29T10:54:23;14.90;;;9.17;;
4468;SDS011;2247;42.666;23.292;2023-01-29T10:57:10;20.60;;;10.60;;
4468;SDS011;2247;42.666;23.292;2023-01-29T11:00:00;17.63;;;10.43;;
4468;SDS011;2247;42.666;23.292;2023-01-29T11:02:41;15.53;;;9.53;;
4468;SDS011;2247;42.666;23.292;2023-01-29T11:05:16;15.10;;;9.43;;
4468;SDS011;2247;42.666;23.292;2023-01-29T11:07:55;18.23;;;10.03;;
4468;SDS011;2247;42.666;23.292;2023-01-29T11:10:30;16.77;;;9.60;;
4468;SDS011;2247;42.666;23.292;2023-01-29T11:13:04;20.67;;;11.60;;
4468;SDS011;2247;42.666;23.292;2023-01-29T11:15:37;19.87;;;11.60;;
4468;SDS011;2247;42.666;23.292;2023-01-29T11:18:07;20.27;;;11.20;;
4468;SDS011;2247;42.666;23.292;2023-01-29T11:20:38;19.50;;;11.30;;
4468;SDS011;2247;42.666;23.292;2023-01-29T11:23:19;21.17;;;11.40;;
4468;SDS011;2247;42.666;23.292;2023-01-29T11:25:54;15.93;;;10.50;;
4468;SDS011;2247;42.666;23.292;2023-01-29T11:28:38;20.17;;;11.10;;
4468;SDS011;2247;42.666;23.292;2023-01-29T11:31:16;20.73;;;11.17;;
4468;SDS011;2247;42.666;23.292;2023-01-29T11:33:48;16.20;;;9.60;;
4468;SDS011;2247;42.666;23.292;2023-01-29T11:36:34;20.40;;;11.13;;
4468;SDS011;2247;42.666;23.292;2023-01-29T11:39:13;18.20;;;10.80;;
4468;SDS011;2247;42.666;23.292;2023-01-29T11:41:48;17.87;;;10.30;;
4468;SDS011;2247;42.666;23.292;2023-01-29T11:44:30;20.43;;;12.20;;
4468;SDS011;2247;42.666;23.292;2023-01-29T11:47:17;17.97;;;10.80;;
4468;SDS011;2247;42.666;23.292;2023-01-29T11:49:48;19.67;;;11.60;;
4468;SDS011;2247;42.666;23.292;2023-01-29T11:52:18;21.90;;;11.13;;
4468;SDS011;2247;42.666;23.292;2023-01-29T11:54:49;16.03;;;9.93;;
4468;SDS011;2247;42.666;23.292;2023-01-29T11:57:27;20.73;;;11.03;;
4468;SDS011;2247;42.666;23.292;2023-01-29T11:59:58;20.00;;;10.63;;
4468;SDS011;2247;42.666;23.292;2023-01-29T12:02:32;19.63;;;11.57;;
4468;SDS011;2247;42.666;23.292;2023-01-29T12:05:04;22.23;;;11.60;;
4468;SDS011;2247;42.666;23.292;2023-01-29T12:07:40;19.63;;;10.90;;
4468;SDS011;2247;42.666;23.292;2023-01-29T12:10:27;17.93;;;10.73;;
4468;SDS011;2247;42.666;23.292;2023-01-29T12:13:06;21.27;;;11.23;;
4468;SDS011;2247;42.666;23.292;2023-01-29T12:16:04;19.83;;;10.87;;
4468;SDS011;2247;42.666;23.292;2023-01-29T12:18:39;16.73;;;9.87;;
4468;SDS011;2247;42.666;23.292;2023-01-29T12:21:13;16.83;;;10.17;;
4468;SDS011;2247;42.666;23.292;2023-01-29T12:23:46;17.07;;;10.17;;
4468;SDS011;2247;42.666;23.292;2023-01-29T12:26:24;17.03;;;9.90;;
4468;SDS011;2247;42.666;23.292;2023-01-29T12:29:11;14.90;;;9.20;;
4468;SDS011;2247;42.666;23.292;2023-01-29T12:31:50;13.83;;;8.90;;
4468;SDS011;2247;42.666;23.292;2023-01-29T12:34:29;17.40;;;10.70;;
4468;SDS011;2247;42.666;23.292;2023-01-29T12:37:09;17.17;;;9.53;;
4468;SDS011;2247;42.666;23.292;2023-01-29T12:39:45;15.50;;;9.50;;
4468;SDS011;2247;42.666;23.292;2023-01-29T12:42:13;16.13;;;10.23;;
4468;SDS011;2247;42.666;23.292;2023-01-29T12:44:45;16.20;;;9.80;;
4468;SDS011;2247;42.666;23.292;2023-01-29T12:47:20;16.23;;;10.50;;
4468;SDS011;2247;42.666;23.292;2023-01-29T12:49:51;18.03;;;10.10;;
4468;SDS011;2247;42.666;23.292;2023-01-29T12:52:28;16.50;;;9.77;;
4468;SDS011;2247;42.666;23.292;2023-01-29T12:55:05;19.67;;;12.30;;
4468;SDS011;2247;42.666;23.292;2023-01-29T12:57:39;14.93;;;9.70;;
4468;SDS011;2247;42.666;23.292;2023-01-29T13:00:13;17.70;;;10.20;;
4468;SDS011;2247;42.666;23.292;2023-01-29T13:02:51;18.13;;;9.70;;
4468;SDS011;2247;42.666;23.292;2023-01-29T13:05:24;14.23;;;9.13;;
4468;SDS011;2247;42.666;23.292;2023-01-29T13:07:56;15.43;;;9.57;;
4468;SDS011;2247;42.666;23.292;2023-01-29T13:10:35;15.47;;;9.90;;
4468;SDS011;2247;42.666;23.292;2023-01-29T13:13:11;15.27;;;10.43;;
4468;SDS011;2247;42.666;23.292;2023-01-29T13:15:41;16.23;;;9.57;;
4468;SDS011;2247;42.666;23.292;2023-01-29T13:18:26;15.27;;;9.50;;
4468;SDS011;2247;42.666;23.292;2023-01-29T13:21:02;13.20;;;8.80;;
4468;SDS011;2247;42.666;23.292;2023-01-29T13:23:36;14.30;;;9.20;;
4468;SDS011;2247;42.666;23.292;2023-01-29T13:26:07;14.20;;;9.03;;
4468;SDS011;2247;42.666;23.292;2023-01-29T13:28:36;13.20;;;8.70;;
4468;SDS011;2247;42.666;23.292;2023-01-29T13:31:16;16.13;;;9.50;;
4468;SDS011;2247;42.666;23.292;2023-01-29T13:33:54;14.17;;;8.97;;
4468;SDS011;2247;42.666;23.292;2023-01-29T13:36:28;14.90;;;8.80;;
4468;SDS011;2247;42.666;23.292;2023-01-29T13:38:58;13.07;;;8.30;;
4468;SDS011;2247;42.666;23.292;2023-01-29T13:41:35;14.43;;;9.30;;
4468;SDS011;2247;42.666;23.292;2023-01-29T13:44:04;15.30;;;9.53;;
4468;SDS011;2247;42.666;23.292;2023-01-29T13:46:33;15.47;;;8.97;;
4468;SDS011;2247;42.666;23.292;2023-01-29T13:49:14;15.70;;;9.53;;
4468;SDS011;2247;42.666;23.292;2023-01-29T13:51:51;15.50;;;10.20;;
4468;SDS011;2247;42.666;23.292;2023-01-29T13:54:21;18.40;;;11.50;;
4468;SDS011;2247;42.666;23.292;2023-01-29T13:56:55;20.40;;;11.90;;
4468;SDS011;2247;42.666;23.292;2023-01-29T14:02:20;17.67;;;10.80;;
4468;SDS011;2247;42.666;23.292;2023-01-29T14:04:50;18.67;;;11.90;;
4468;SDS011;2247;42.666;23.292;2023-01-29T14:07:42;18.77;;;11.17;;
4468;SDS011;2247;42.666;23.292;2023-01-29T14:10:17;15.70;;;10.27;;
4468;SDS011;2247;42.666;23.292;2023-01-29T14:12:46;17.87;;;11.10;;
4468;SDS011;2247;42.666;23.292;2023-01-29T14:15:16;19.90;;;11.13;;
4468;SDS011;2247;42.666;23.292;2023-01-29T14:20:58;23.90;;;10.67;;
4468;SDS011;2247;42.666;23.292;2023-01-29T14:23:38;18.80;;;10.97;;
4468;SDS011;2247;42.666;23.292;2023-01-29T14:26:18;19.70;;;11.50;;
4468;SDS011;2247;42.666;23.292;2023-01-29T14:28:53;22.70;;;12.37;;
4468;SDS011;2247;42.666;23.292;2023-01-29T14:31:30;21.73;;;12.73;;
4468;SDS011;2247;42.666;23.292;2023-01-29T14:34:02;23.40;;;13.17;;
4468;SDS011;2247;42.666;23.292;2023-01-29T14:36:40;21.20;;;12.00;;
4468;SDS011;2247;42.666;23.292;2023-01-29T14:39:18;21.33;;;12.47;;
4468;SDS011;2247;42.666;23.292;2023-01-29T14:41:48;19.90;;;11.50;;
4468;SDS011;2247;42.666;23.292;2023-01-29T14:50:39;21.87;;;12.77;;
4468;SDS011;2247;42.666;23.292;2023-01-29T14:53:21;21.97;;;12.30;;
4468;SDS011;2247;42.666;23.292;2023-01-29T14:55:55;19.50;;;10.53;;
4468;SDS011;2247;42.666;23.292;2023-01-29T14:58:27;20.93;;;12.13;;
4468;SDS011;2247;42.666;23.292;2023-01-29T15:01:01;21.10;;;11.57;;
4468;SDS011;2247;42.666;23.292;2023-01-29T15:03:38;19.30;;;11.90;;
4468;SDS011;2247;42.666;23.292;2023-01-29T15:06:14;18.03;;;10.33;;
4468;SDS011;2247;42.666;23.292;2023-01-29T15:08:46;19.67;;;12.10;;
4468;SDS011;2247;42.666;23.292;2023-01-29T15:11:22;19.23;;;11.27;;
4468;SDS011;2247;42.666;23.292;2023-01-29T15:14:03;19.23;;;11.60;;
4468;SDS011;2247;42.666;23.292;2023-01-29T15:16:50;19.50;;;11.50;;
4468;SDS011;2247;42.666;23.292;2023-01-29T15:19:25;20.17;;;11.83;;
4468;SDS011;2247;42.666;23.292;2023-01-29T15:22:01;21.13;;;12.27;;
4468;SDS011;2247;42.666;23.292;2023-01-29T15:24:31;21.40;;;12.00;;
4468;SDS011;2247;42.666;23.292;2023-01-29T15:26:58;22.87;;;13.03;;
4468;SDS011;2247;42.666;23.292;2023-01-29T15:29:26;21.63;;;12.67;;
4468;SDS011;2247;42.666;23.292;2023-01-29T15:31:54;22.60;;;13.30;;
4468;SDS011;2247;42.666;23.292;2023-01-29T15:34:22;23.53;;;13.17;;
4468;SDS011;2247;42.666;23.292;2023-01-29T15:36:49;18.10;;;11.10;;
4468;SDS011;2247;42.666;23.292;2023-01-29T15:39:17;18.70;;;11.43;;
4468;SDS011;2247;42.666;23.292;2023-01-29T15:41:47;22.07;;;11.60;;
4468;SDS011;2247;42.666;23.292;2023-01-29T15:44:15;31.97;;;12.97;;
4468;SDS011;2247;42.666;23.292;2023-01-29T15:46:47;108.27;;;26.83;;
4468;SDS011;2247;42.666;23.292;2023-01-29T15:49:18;124.93;;;31.30;;
4468;SDS011;2247;42.666;23.292;2023-01-29T15:51:53;109.20;;;29.90;;
4468;SDS011;2247;42.666;23.292;2023-01-29T15:54:23;55.17;;;17.50;;
4468;SDS011;2247;42.666;23.292;2023-01-29T15:56:57;52.10;;;17.97;;
4468;SDS011;2247;42.666;23.292;2023-01-29T15:59:28;28.37;;;14.07;;
4468;SDS011;2247;42.666;23.292;2023-01-29T16:04:51;22.67;;;12.40;;
4468;SDS011;2247;42.666;23.292;2023-01-29T16:07:19;23.30;;;12.93;;
4468;SDS011;2247;42.666;23.292;2023-01-29T16:09:47;24.47;;;13.50;;
4468;SDS011;2247;42.666;23.292;2023-01-29T16:12:20;23.57;;;13.00;;
4468;SDS011;2247;42.666;23.292;2023-01-29T16:14:49;26.40;;;14.40;;
4468;SDS011;2247;42.666;23.292;2023-01-29T16:17:21;25.90;;;14.53;;
4468;SDS011;2247;42.666;23.292;2023-01-29T16:19:55;26.50;;;14.60;;
4468;SDS011;2247;42.666;23.292;2023-01-29T16:22:24;21.93;;;11.90;;
4468;SDS011;2247;42.666;23.292;2023-01-29T16:24:52;21.00;;;12.73;;
4468;SDS011;2247;42.666;23.292;2023-01-29T16:27:21;22.67;;;12.20;;
4468;SDS011;2247;42.666;23.292;2023-01-29T16:29:50;20.17;;;12.50;;
4468;SDS011;2247;42.666;23.292;2023-01-29T16:32:18;20.30;;;11.50;;
4468;SDS011;2247;42.666;23.292;2023-01-29T16:34:46;22.57;;;13.40;;
4468;SDS011;2247;42.666;23.292;2023-01-29T16:37:18;21.27;;;12.43;;
4468;SDS011;2247;42.666;23.292;2023-01-29T16:39:49;20.53;;;11.97;;
4468;SDS011;2247;42.666;23.292;2023-01-29T16:42:23;24.00;;;12.87;;
4468;SDS011;2247;42.666;23.292;2023-01-29T16:44:58;25.87;;;14.17;;
4468;SDS011;2247;42.666;23.292;2023-01-29T16:47:31;25.70;;;14.20;;
4468;SDS011;2247;42.666;23.292;2023-01-29T16:50:04;24.40;;;14.10;;
4468;SDS011;2247;42.666;23.292;2023-01-29T16:52:56;22.23;;;12.90;;
4468;SDS011;2247;42.666;23.292;2023-01-29T16:55:31;23.90;;;13.30;;
4468;SDS011;2247;42.666;23.292;2023-01-29T16:58:08;24.17;;;13.43;;
4468;SDS011;2247;42.666;23.292;2023-01-29T17:00:41;22.00;;;12.73;;
4468;SDS011;2247;42.666;23.292;2023-01-29T17:03:11;24.50;;;13.03;;
4468;SDS011;2247;42.666;23.292;2023-01-29T17:05:40;22.00;;;12.50;;
4468;SDS011;2247;42.666;23.292;2023-01-29T17:08:07;22.43;;;12.10;;
4468;SDS011;2247;42.666;23.292;2023-01-29T17:10:45;20.57;;;12.60;;
4468;SDS011;2247;42.666;23.292;2023-01-29T17:13:17;22.30;;;12.17;;
4468;SDS011;2247;42.666;23.292;2023-01-29T17:15:52;23.40;;;13.70;;
4468;SDS011;2247;42.666;23.292;2023-01-29T17:18:27;23.30;;;12.93;;
4468;SDS011;2247;42.666;23.292;2023-01-29T17:20:55;23.03;;;12.70;;
4468;SDS011;2247;42.666;23.292;2023-01-29T17:23:23;23.53;;;13.60;;
4468;SDS011;2247;42.666;23.292;2023-01-29T17:25:50;23.83;;;14.00;;
4468;SDS011;2247;42.666;23.292;2023-01-29T17:28:18;25.87;;;13.50;;
4468;SDS011;2247;42.666;23.292;2023-01-29T17:30:46;22.37;;;13.00;;
4468;SDS011;2247;42.666;23.292;2023-01-29T17:33:15;27.20;;;14.40;;
4468;SDS011;2247;42.666;23.292;2023-01-29T17:35:50;27.23;;;14.57;;
4468;SDS011;2247;42.666;23.292;2023-01-29T17:38:18;27.50;;;14.90;;
4468;SDS011;2247;42.666;23.292;2023-01-29T17:40:48;25.40;;;14.03;;
4468;SDS011;2247;42.666;23.292;2023-01-29T17:43:24;24.70;;;13.27;;
4468;SDS011;2247;42.666;23.292;2023-01-29T17:45:51;19.97;;;11.53;;
4468;SDS011;2247;42.666;23.292;2023-01-29T17:48:19;23.00;;;12.80;;
4468;SDS011;2247;42.666;23.292;2023-01-29T17:50:49;19.87;;;11.10;;
4468;SDS011;2247;42.666;23.292;2023-01-29T17:53:18;18.97;;;11.10;;
4468;SDS011;2247;42.666;23.292;2023-01-29T17:55:47;19.70;;;11.33;;
4468;SDS011;2247;42.666;23.292;2023-01-29T17:58:17;20.63;;;11.63;;
4468;SDS011;2247;42.666;23.292;2023-01-29T18:00:48;19.03;;;10.63;;
4468;SDS011;2247;42.666;23.292;2023-01-29T18:03:15;21.20;;;12.07;;
4468;SDS011;2247;42.666;23.292;2023-01-29T18:05:44;31.40;;;16.30;;
4468;SDS011;2247;42.666;23.292;2023-01-29T18:08:14;28.87;;;14.33;;
4468;SDS011;2247;42.666;23.292;2023-01-29T18:10:43;35.53;;;16.23;;
4468;SDS011;2247;42.666;23.292;2023-01-29T18:13:12;47.10;;;19.93;;
4468;SDS011;2247;42.666;23.292;2023-01-29T18:15:41;63.67;;;22.40;;
4468;SDS011;2247;42.666;23.292;2023-01-29T18:18:13;60.60;;;23.07;;
4468;SDS011;2247;42.666;23.292;2023-01-29T18:20:43;42.80;;;18.47;;
4468;SDS011;2247;42.666;23.292;2023-01-29T18:23:11;20.70;;;11.40;;
4468;SDS011;2247;42.666;23.292;2023-01-29T18:25:38;20.27;;;11.07;;
4468;SDS011;2247;42.666;23.292;2023-01-29T18:28:08;19.80;;;11.70;;
4468;SDS011;2247;42.666;23.292;2023-01-29T18:30:41;19.33;;;11.07;;
4468;SDS011;2247;42.666;23.292;2023-01-29T18:33:09;19.67;;;11.57;;
4468;SDS011;2247;42.666;23.292;2023-01-29T18:35:38;18.87;;;11.40;;
4468;SDS011;2247;42.666;23.292;2023-01-29T18:38:05;21.10;;;12.00;;
4468;SDS011;2247;42.666;23.292;2023-01-29T18:40:32;22.23;;;12.10;;
4468;SDS011;2247;42.666;23.292;2023-01-29T18:43:00;24.93;;;13.43;;
4468;SDS011;2247;42.666;23.292;2023-01-29T18:45:28;25.00;;;13.00;;
4468;SDS011;2247;42.666;23.292;2023-01-29T18:47:56;25.13;;;13.40;;
4468;SDS011;2247;42.666;23.292;2023-01-29T18:50:24;21.83;;;12.03;;
4468;SDS011;2247;42.666;23.292;2023-01-29T18:52:52;23.50;;;12.73;;
4468;SDS011;2247;42.666;23.292;2023-01-29T18:55:20;22.27;;;12.10;;
4468;SDS011;2247;42.666;23.292;2023-01-29T18:57:50;21.57;;;12.60;;
4468;SDS011;2247;42.666;23.292;2023-01-29T19:00:18;20.30;;;11.73;;
4468;SDS011;2247;42.666;23.292;2023-01-29T19:02:46;21.60;;;11.33;;
4468;SDS011;2247;42.666;23.292;2023-01-29T19:05:13;20.70;;;11.60;;
4468;SDS011;2247;42.666;23.292;2023-01-29T19:07:48;21.67;;;11.70;;
4468;SDS011;2247;42.666;23.292;2023-01-29T19:10:17;20.00;;;11.07;;
4468;SDS011;2247;42.666;23.292;2023-01-29T19:12:44;22.53;;;12.10;;
4468;SDS011;2247;42.666;23.292;2023-01-29T19:15:12;20.47;;;11.23;;
4468;SDS011;2247;42.666;23.292;2023-01-29T19:17:41;20.47;;;10.30;;
4468;SDS011;2247;42.666;23.292;2023-01-29T19:20:09;20.07;;;11.40;;
4468;SDS011;2247;42.666;23.292;2023-01-29T19:23:01;20.50;;;11.37;;
4468;SDS011;2247;42.666;23.292;2023-01-29T19:25:28;20.93;;;11.07;;
4468;SDS011;2247;42.666;23.292;2023-01-29T19:27:56;21.97;;;11.77;;
4468;SDS011;2247;42.666;23.292;2023-01-29T19:30:23;23.37;;;11.87;;
4468;SDS011;2247;42.666;23.292;2023-01-29T19:32:50;23.07;;;11.63;;
4468;SDS011;2247;42.666;23.292;2023-01-29T19:35:18;20.57;;;11.77;;
4468;SDS011;2247;42.666;23.292;2023-01-29T19:37:46;17.83;;;10.10;;
4468;SDS011;2247;42.666;23.292;2023-01-29T19:40:15;21.33;;;12.20;;
4468;SDS011;2247;42.666;23.292;2023-01-29T19:42:42;22.33;;;12.03;;
4468;SDS011;2247;42.666;23.292;2023-01-29T19:45:11;24.87;;;12.20;;
4468;SDS011;2247;42.666;23.292;2023-01-29T19:47:39;20.57;;;11.50;;
4468;SDS011;2247;42.666;23.292;2023-01-29T19:50:09;25.10;;;13.13;;
4468;SDS011;2247;42.666;23.292;2023-01-29T19:52:37;26.27;;;13.30;;
4468;SDS011;2247;42.666;23.292;2023-01-29T19:55:06;24.90;;;13.30;;
4468;SDS011;2247;42.666;23.292;2023-01-29T19:57:35;26.30;;;12.40;;
4468;SDS011;2247;42.666;23.292;2023-01-29T20:00:04;27.80;;;13.27;;
4468;SDS011;2247;42.666;23.292;2023-01-29T20:02:32;30.87;;;14.63;;
4468;SDS011;2247;42.666;23.292;2023-01-29T20:04:59;29.07;;;15.20;;
4468;SDS011;2247;42.666;23.292;2023-01-29T20:07:29;30.30;;;15.50;;
4468;SDS011;2247;42.666;23.292;2023-01-29T20:09:57;31.83;;;14.60;;
4468;SDS011;2247;42.666;23.292;2023-01-29T20:12:24;26.40;;;13.73;;
4468;SDS011;2247;42.666;23.292;2023-01-29T20:14:53;25.90;;;13.43;;
4468;SDS011;2247;42.666;23.292;2023-01-29T20:17:21;29.20;;;13.83;;
4468;SDS011;2247;42.666;23.292;2023-01-29T20:19:48;25.23;;;13.83;;
4468;SDS011;2247;42.666;23.292;2023-01-29T20:22:16;28.27;;;12.60;;
4468;SDS011;2247;42.666;23.292;2023-01-29T20:24:43;22.43;;;12.30;;
4468;SDS011;2247;42.666;23.292;2023-01-29T20:27:11;22.47;;;11.40;;
4468;SDS011;2247;42.666;23.292;2023-01-29T20:29:38;21.97;;;10.83;;
4468;SDS011;2247;42.666;23.292;2023-01-29T20:32:09;19.70;;;11.10;;
4468;SDS011;2247;42.666;23.292;2023-01-29T20:34:38;22.97;;;11.20;;
4468;SDS011;2247;42.666;23.292;2023-01-29T20:37:06;20.47;;;10.70;;
4468;SDS011;2247;42.666;23.292;2023-01-29T20:39:34;20.17;;;11.10;;
4468;SDS011;2247;42.666;23.292;2023-01-29T20:42:01;22.47;;;10.83;;
4468;SDS011;2247;42.666;23.292;2023-01-29T20:44:29;22.13;;;11.40;;
4468;SDS011;2247;42.666;23.292;2023-01-29T20:46:56;21.40;;;11.03;;
4468;SDS011;2247;42.666;23.292;2023-01-29T20:49:28;21.37;;;11.33;;
4468;SDS011;2247;42.666;23.292;2023-01-29T20:51:56;20.90;;;11.20;;
4468;SDS011;2247;42.666;23.292;2023-01-29T20:54:23;22.57;;;11.30;;
4468;SDS011;2247;42.666;23.292;2023-01-29T20:56:50;23.07;;;10.90;;
4468;SDS011;2247;42.666;23.292;2023-01-29T20:59:18;20.03;;;10.37;;
4468;SDS011;2247;42.666;23.292;2023-01-29T21:01:45;19.53;;;10.23;;
4468;SDS011;2247;42.666;23.292;2023-01-29T21:04:13;20.07;;;10.10;;
4468;SDS011;2247;42.666;23.292;2023-01-29T21:06:41;23.80;;;11.27;;
4468;SDS011;2247;42.666;23.292;2023-01-29T21:09:10;22.23;;;10.50;;
4468;SDS011;2247;42.666;23.292;2023-01-29T21:11:37;22.10;;;10.93;;
4468;SDS011;2247;42.666;23.292;2023-01-29T21:14:09;20.83;;;10.60;;
4468;SDS011;2247;42.666;23.292;2023-01-29T21:16:36;22.60;;;11.03;;
4468;SDS011;2247;42.666;23.292;2023-01-29T21:19:03;22.63;;;11.10;;
4468;SDS011;2247;42.666;23.292;2023-01-29T21:21:31;21.00;;;11.50;;
4468;SDS011;2247;42.666;23.292;2023-01-29T21:24:01;23.10;;;10.20;;
4468;SDS011;2247;42.666;23.292;2023-01-29T21:26:28;16.30;;;8.60;;